Meteorological Aerodrome Report (METAR)

METAR

Data at: 0830 UTC 04 Dec 2021

METAR for:NVSC (Sola/Vanua Lava Arpt, TO, VU)
Text:NVSC 040600Z 00000KT 9999 FEW010 SCT018 OVC040 27/26 1004
Temperature: 27.0°C ( 81°F)
Dewpoint: 26.0°C ( 79°F) [RH = 94%]
Winds:calm
Visibility:6 or more sm (10+ km)
Ceiling:4000 feet AGL
Clouds: few clouds at 1000 feet AGL, scattered clouds at 1800 feet AGL, overcast cloud deck at 4000 feet AGL

METAR

Data at: 0830 UTC 04 Dec 2021

METAR for:NVSG (Longana Arpt, PA, VU)
Text:NVSG 040600Z 09002KT 9999 FEW018 SCT040 OVC110 28/25 Q1004 RMK RERA
Temperature: 28.0°C ( 82°F)
Dewpoint: 25.0°C ( 77°F) [RH = 84%]
Pressure (altimeter):29.65 inches Hg (1004.0 mb)
Winds:from the E (90 degrees) at 2 MPH (2 knots; 1.0 m/s)
Visibility:6 or more sm (10+ km)
Ceiling:11000 feet AGL
Clouds: few clouds at 1800 feet AGL, scattered clouds at 4000 feet AGL, overcast cloud deck at 11000 feet AGL

METAR

Data at: 0830 UTC 04 Dec 2021

METAR for:NVSS (Santo/Pekoa Intl, SA, VU)
Text:NVSS 040800Z 00000KT 9999 SCT020 BKN130 25/24 Q1005
Temperature: 25.0°C ( 77°F)
Dewpoint: 24.0°C ( 75°F) [RH = 94%]
Pressure (altimeter):29.68 inches Hg (1005.0 mb)
Winds:calm
Visibility:6 or more sm (10+ km)
Ceiling:13000 feet AGL
Clouds: scattered clouds at 2000 feet AGL, broken clouds at 13000 feet AGL

METAR

Data at: 0830 UTC 04 Dec 2021

METAR for:NVSL (Malekula Isl/Lamap, MA, VU)
Text:No data found

METAR

Data at: 0830 UTC 04 Dec 2021

METAR for:NVSP (Norsup Arpt, MA, VU)
Text:No data found

METAR

Data at: 0830 UTC 04 Dec 2021

METAR for:NVVV (Efate/Bauerfield Int, SE, VU)
Text:NVVV 040800Z 00000KT 9999 SCT020 BKN040 25/24 Q1006
Temperature: 25.0°C ( 77°F)
Dewpoint: 24.0°C ( 75°F) [RH = 94%]
Pressure (altimeter):29.70 inches Hg (1006.0 mb)
Winds:calm
Visibility:6 or more sm (10+ km)
Ceiling:4000 feet AGL
Clouds: scattered clouds at 2000 feet AGL, broken clouds at 4000 feet AGL

METAR

Data at: 0830 UTC 04 Dec 2021

METAR for:NVVW (Tanna Arpt, TA, VU)
Text:NVVW 040600Z 08006KT 9999 BKN020 OVC040 29/24 Q1005
Temperature: 29.0°C ( 84°F)
Dewpoint: 24.0°C ( 75°F) [RH = 74%]
Pressure (altimeter):29.68 inches Hg (1005.0 mb)
Winds:from the E (80 degrees) at 7 MPH (6 knots; 3.1 m/s)
Visibility:6 or more sm (10+ km)
Ceiling:2000 feet AGL
Clouds: broken clouds at 2000 feet AGL, overcast cloud deck at 4000 feet AGL

METAR

Data at: 0830 UTC 04 Dec 2021

METAR for:NVVA (Aneityum/Mystery Isl, TA, VU)
Text:NVVA 040600Z 09004KT 9999 SCT020 BKN130 26/22 Q1006 RMK RERA
Temperature: 26.0°C ( 79°F)
Dewpoint: 22.0°C ( 72°F) [RH = 79%]
Pressure (altimeter):29.70 inches Hg (1006.0 mb)
Winds:from the E (90 degrees) at 5 MPH (4 knots; 2.1 m/s)
Visibility:6 or more sm (10+ km)
Ceiling:13000 feet AGL
Clouds: scattered clouds at 2000 feet AGL, broken clouds at 13000 feet AGL

METAR

Data at: 0830 UTC 04 Dec 2021

NVVV 040800Z 00000KT 9999 SCT020 BKN040 25/24 Q1006
NVSC 040600Z 00000KT 9999 FEW010 SCT018 OVC040 27/26 1004
NVSG 040600Z 09002KT 9999 FEW018 SCT040 OVC110 28/25 Q1004 RMK RERA
NVSS 040800Z 00000KT 9999 SCT020 BKN130 25/24 Q1005
No Data available for NVSL
No Data available for NVSP
NVVW 040600Z 08006KT 9999 BKN020 OVC040 29/24 Q1005
NVVA 040600Z 09004KT 9999 SCT020 BKN130 26/22 Q1006 RMK RERA